Time;durP1;ratioP1;P1;durP2;ratioP2;P2;SDS_P1;SDS_P2;PMS_P1;PMS_P2;Temp;Humidity;BMP_temperature;BMP_pressure;BME280_temperature;BME280_humidity;BME280_pressure;Samples;Min_cycle;Max_cycle;Signal;HPM_P1;HPM_P2
2022/01/12 00:00:07;;;;;;;;;;;;;;;;;;1031918;28;1502;-39
2022/01/12 00:00:40;;;;;;;;;;;;;;;;;;1032149;28;680;-41
2022/01/12 00:01:12;;;;;;;;;;;;;;;;;;1032015;28;926;-41
2022/01/12 00:01:43;;;;;;;;;;;;;;;;;;1031718;28;945;-41
2022/01/12 00:02:13;;;;;;;;;;;;;;;;;;1032082;28;930;-40
2022/01/12 00:02:44;;;;;;;;;;;;;;;;;;1031997;28;941;-42
2022/01/12 00:03:14;;;;;;;;;;;;;;;;;;1032099;28;899;-41
2022/01/12 00:03:45;;;;;;;;;;;;;;;;;;1032077;28;823;-42
2022/01/12 00:04:15;;;;;;;;;;;;;;;;;;1031982;28;792;-41
2022/01/12 00:04:45;;;;;;;;;;;;;;;;;;1032106;28;938;-41
2022/01/12 00:05:17;;;;;;;;;;;;;;;;;;1032020;28;933;-41
2022/01/12 00:05:47;;;;;;;;;;;;;;;;;;1031997;28;986;-40
2022/01/12 00:06:17;;;;;;;;;;;;;;;;;;1032127;28;780;-40
2022/01/12 00:06:48;;;;;;;;;;;;;;;;;;1031933;28;788;-40
2022/01/12 00:07:18;;;;;;;;;;;;;;;;;;1032020;28;957;-40
2022/01/12 00:07:50;;;;;;;;;;;;;;;;;;1032035;28;907;-42
2022/01/12 00:08:21;;;;;;;;;;;;;;;;;;1031870;28;1015;-41
2022/01/12 00:08:51;;;;;;;;;;;;;;;;;;1032201;28;807;-40
2022/01/12 00:09:22;;;;;;;;;;;;;;;;;;1031566;28;1950;-40
2022/01/12 00:09:52;;;;;;;;;;;;;;;;;;1032106;28;886;-41
2022/01/12 00:10:22;;;;;;;;;;;;;;;;;;1031877;28;938;-41
2022/01/12 00:10:56;;;;;;;;;;;;;;;;;;1032086;28;960;-41
2022/01/12 00:11:26;;;;;;;;;;;;;;;;;;1031997;28;906;-39
2022/01/12 00:11:58;;;;;;;;;;;;;;;;;;1031983;28;854;-41
2022/01/12 00:12:29;;;;;;;;;;;;;;;;;;1032057;28;830;-41
2022/01/12 00:12:59;;;;;;;;;;;;;;;;;;1032119;28;780;-41
2022/01/12 00:13:30;;;;;;;;;;;;;;;;;;1031867;28;838;-40
2022/01/12 00:14:00;;;;;;;;;;;;;;;;;;1032036;28;854;-40
2022/01/12 00:14:31;;;;;;;;;;;;;;;;;;1032020;28;886;-41
2022/01/12 00:15:01;;;;;;;;;;;;;;;;;;1032091;28;851;-41
2022/01/12 00:15:32;;;;;;;;;;;;;;;;;;1032029;28;815;-41
2022/01/12 00:16:03;;;;;;;;;;;;;;;;;;1031960;28;950;-40
2022/01/12 00:16:34;;;;;;;;;;;;;;;;;;1031771;28;863;-41
2022/01/12 00:17:04;;;;;;;;;;;;;;;;;;1032025;28;977;-40
2022/01/12 00:17:35;;;;;;;;;;;;;;;;;;1031910;28;898;-41
2022/01/12 00:18:05;;;;;;;;;;;;;;;;;;1031957;28;852;-41
2022/01/12 00:18:36;;;;;;;;;;;;;;;;;;1031840;28;883;-41
2022/01/12 00:19:06;;;;;;;;;;;;;;;;;;1032055;28;993;-40
2022/01/12 00:19:36;;;;;;;;;;;;;;;;;;1031905;28;1028;-41
2022/01/12 00:20:07;;;;;;;;;;;;;;;;;;1031888;28;954;-38
2022/01/12 00:20:37;;;;;;;;;;;;;;;;;;1031923;28;938;-40
2022/01/12 00:21:07;;;;;;;;;;;;;;;;;;1031947;28;1061;-41
2022/01/12 00:21:38;;;;;;;;;;;;;;;;;;1031859;28;906;-40
2022/01/12 00:22:09;;;;;;;;;;;;;;;;;;1031994;28;1012;-41
2022/01/12 00:22:41;;;;;;;;;;;;;;;;;;1031804;28;902;-40
2022/01/12 00:23:11;;;;;;;;;;;;;;;;;;1032040;28;1229;-41
2022/01/12 00:23:41;;;;;;;;;;;;;;;;;;1031775;28;911;-41
2022/01/12 00:24:12;;;;;;;;;;;;;;;;;;1031725;28;843;-40
2022/01/12 00:25:56;;;;;;;;;;;;;;;;;;1031881;28;803;-41
2022/01/12 00:33:12;;;;;;;;;;;;;;;;;;1030422;28;1079;-41
2022/01/12 00:33:42;;;;;;;;;;;;;;;;;;1031769;28;1139;-41
2022/01/12 00:34:13;;;;;;;;;;;;;;;;;;1031942;28;1076;-41
2022/01/12 00:34:43;;;;;;;;;;;;;;;;;;1027157;28;1185;-42
2022/01/12 00:35:14;;;;;;;;;;;;;;;;;;1027665;28;1234;-42
2022/01/12 00:35:46;;;;;;;;;;;;;;;;;;1027270;28;1223;-41
2022/01/12 00:36:16;;;;;;;;;;;;;;;;;;1027933;28;1100;-41
2022/01/12 00:36:47;;;;;;;;;;;;;;;;;;1030945;28;1228;-41
2022/01/12 00:37:17;;;;;;;;;;;;;;;;;;1027442;28;1088;-41
2022/01/12 00:37:48;;;;;;;;;;;;;;;;;;1027423;28;1219;-42
2022/01/12 00:38:19;;;;;;;;;;;;;;;;;;1027568;28;1215;-41
2022/01/12 00:38:50;;;;;;;;;;;;;;;;;;1031931;28;1182;-41
2022/01/12 00:39:20;;;;;;;;;;;;;;;;;;1031763;28;1135;-41
2022/01/12 00:39:56;;;;;;;;;;;;;;;;;;1027381;28;1122;-40
2022/01/12 00:40:27;;;;;;;;;;;;;;;;;;1027273;28;1210;-41
2022/01/12 00:40:57;;;;;;;;;;;;;;;;;;1027419;28;1301;-42
2022/01/12 00:41:28;;;;;;;;;;;;;;;;;;1028257;28;1499;-41
2022/01/12 00:41:58;;;;;;;;;;;;;;;;;;1031739;28;969;-41
2022/01/12 00:42:29;;;;;;;;;;;;;;;;;;1031454;28;930;-40
2022/01/12 00:43:00;;;;;;;;;;;;;;;;;;1027615;28;875;-41
2022/01/12 00:43:33;;;;;;;;;;;;;;;;;;1031938;28;954;-41
2022/01/12 00:44:07;;;;;;;;;;;;;;;;;;1031885;28;831;-40
2022/01/12 00:44:43;;;;;;;;;;;;;;;;;;1031977;28;875;-41
2022/01/12 00:45:14;;;;;;;;;;;;;;;;;;1031435;28;1124;-41
2022/01/12 00:45:46;;;;;;;;;;;;;;;;;;1027480;28;978;-41
2022/01/12 00:46:16;;;;;;;;;;;;;;;;;;1027621;28;883;-40
2022/01/12 00:46:47;;;;;;;;;;;;;;;;;;1027450;28;815;-41
2022/01/12 00:47:17;;;;;;;;;;;;;;;;;;1027919;28;1017;-40
2022/01/12 00:47:47;;;;;;;;;;;;;;;;;;1031811;28;862;-40
2022/01/12 00:48:18;;;;;;;;;;;;;;;;;;1031951;28;874;-39
2022/01/12 00:48:48;;;;;;;;;;;;;;;;;;1031431;28;1173;-40
2022/01/12 00:49:19;;;;;;;;;;;;;;;;;;1031308;28;1912;-41
2022/01/12 00:49:49;;;;;;;;;;;;;;;;;;1031642;28;819;-40
2022/01/12 00:50:19;;;;;;;;;;;;;;;;;;1031345;28;788;-41
2022/01/12 00:50:50;;;;;;;;;;;;;;;;;;1031928;28;992;-40
2022/01/12 00:51:20;;;;;;;;;;;;;;;;;;1031891;28;1005;-39
2022/01/12 00:51:54;;;;;;;;;;;;;;;;;;1031279;28;1125;-41
2022/01/12 00:52:24;;;;;;;;;;;;;;;;;;1031164;28;942;-41
2022/01/12 00:52:54;;;;;;;;;;;;;;;;;;1031663;28;799;-41
2022/01/12 00:53:25;;;;;;;;;;;;;;;;;;1031541;28;958;-41
2022/01/12 00:53:56;;;;;;;;;;;;;;;;;;1031966;28;1104;-40
2022/01/12 00:54:26;;;;;;;;;;;;;;;;;;1027280;28;1395;-39
2022/01/12 00:54:57;;;;;;;;;;;;;;;;;;1027708;28;807;-41
2022/01/12 00:55:27;;;;;;;;;;;;;;;;;;1027363;28;862;-41
2022/01/12 00:55:57;;;;;;;;;;;;;;;;;;1027491;28;1387;-40
2022/01/12 00:56:28;;;;;;;;;;;;;;;;;;1031817;28;811;-40
2022/01/12 00:56:59;;;;;;;;;;;;;;;;;;1031930;28;840;-41
2022/01/12 00:57:30;;;;;;;;;;;;;;;;;;1031746;28;858;-41
2022/01/12 00:58:00;;;;;;;;;;;;;;;;;;1031806;28;859;-39
2022/01/12 00:58:31;;;;;;;;;;;;;;;;;;1027337;28;1267;-40
2022/01/12 00:59:01;;;;;;;;;;;;;;;;;;1027607;28;843;-41
2022/01/12 00:59:32;;;;;;;;;;;;;;;;;;1023376;29;1243;-41
2022/01/12 01:00:03;;;;;;;;;;;;;;;;;;1023443;28;919;-39
2022/01/12 01:00:33;;;;;;;;;;;;;;;;;;1023340;29;1209;-39
2022/01/12 01:01:04;;;;;;;;;;;;;;;;;;1023489;28;875;-39
2022/01/12 01:01:34;;;;;;;;;;;;;;;;;;1023484;29;1542;-40
2022/01/12 01:02:04;;;;;;;;;;;;;;;;;;1019501;29;1169;-39
2022/01/12 01:02:35;;;;;;;;;;;;;;;;;;1023330;29;1023;-40
2022/01/12 01:03:08;;;;;;;;;;;;;;;;;;1023709;28;1202;-39
2022/01/12 01:03:38;;;;;;;;;;;;;;;;;;1023301;28;1340;-39
2022/01/12 01:04:09;;;;;;;;;;;;;;;;;;1023546;29;898;-39
2022/01/12 01:04:40;;;;;;;;;;;;;;;;;;1019766;29;1525;-40
2022/01/12 01:05:12;;;;;;;;;;;;;;;;;;1023820;28;887;-37
2022/01/12 01:05:42;;;;;;;;;;;;;;;;;;1027464;28;902;-39
2022/01/12 01:06:13;;;;;;;;;;;;;;;;;;1027676;28;792;-39
2022/01/12 01:06:43;;;;;;;;;;;;;;;;;;1027320;28;1206;-37
2022/01/12 01:07:14;;;;;;;;;;;;;;;;;;1023552;29;1203;-38
2022/01/12 01:07:44;;;;;;;;;;;;;;;;;;1023357;29;997;-40
2022/01/12 01:08:14;;;;;;;;;;;;;;;;;;1024712;28;1079;-39
2022/01/12 01:08:48;;;;;;;;;;;;;;;;;;1027299;28;931;-39
2022/01/12 01:09:19;;;;;;;;;;;;;;;;;;1027347;28;1918;-40
2022/01/12 01:10:01;;;;;;;;;;;;;;;;;;1027567;28;779;-39
2022/01/12 01:11:03;;;;;;;;;;;;;;;;;;1031450;28;1202;-39
2022/01/12 01:11:33;;;;;;;;;;;;;;;;;;1027381;28;1381;-39
2022/01/12 01:12:06;;;;;;;;;;;;;;;;;;1023429;29;1240;-37
2022/01/12 01:12:37;;;;;;;;;;;;;;;;;;1019368;29;1178;-39
2022/01/12 01:13:11;;;;;;;;;;;;;;;;;;1024165;28;843;-38
2022/01/12 01:13:55;;;;;;;;;;;;;;;;;;1027371;28;879;-39
2022/01/12 01:14:44;;;;;;;;;;;;;;;;;;1025622;28;1569;-39
2022/01/12 01:15:18;;;;;;;;;;;;;;;;;;1027554;28;819;-39
2022/01/12 01:16:26;;;;;;;;;;;;;;;;;;1030891;28;799;-39
2022/01/12 01:25:32;;;;;;;;;;;;;;;;;;1030352;28;1219;-39
2022/01/12 01:26:03;;;;;;;;;;;;;;;;;;1035415;28;847;-38
2022/01/12 01:26:33;;;;;;;;;;;;;;;;;;1031408;28;1173;-38
2022/01/12 01:27:04;;;;;;;;;;;;;;;;;;1031326;28;1173;-39
2022/01/12 01:27:35;;;;;;;;;;;;;;;;;;1027209;28;2287;-40
2022/01/12 01:28:06;;;;;;;;;;;;;;;;;;1027558;28;1638;-39
2022/01/12 01:28:36;;;;;;;;;;;;;;;;;;1031549;28;736;-39
2022/01/12 01:29:07;;;;;;;;;;;;;;;;;;1031349;28;930;-40
2022/01/12 01:29:37;;;;;;;;;;;;;;;;;;1031299;28;1969;-40
2022/01/12 01:30:08;;;;;;;;;;;;;;;;;;1035340;28;1553;-39
2022/01/12 01:30:40;;;;;;;;;;;;;;;;;;1035365;28;949;-39
2022/01/12 01:31:11;;;;;;;;;;;;;;;;;;1035662;28;870;-40
2022/01/12 01:31:44;;;;;;;;;;;;;;;;;;1035285;28;910;-40
2022/01/12 01:32:14;;;;;;;;;;;;;;;;;;1035450;28;1137;-39
2022/01/12 01:32:46;;;;;;;;;;;;;;;;;;1035316;28;1417;-40
2022/01/12 01:33:19;;;;;;;;;;;;;;;;;;1035559;28;930;-40
2022/01/12 01:33:50;;;;;;;;;;;;;;;;;;1035403;28;1205;-40
2022/01/12 01:34:21;;;;;;;;;;;;;;;;;;1035400;28;827;-40
2022/01/12 01:34:51;;;;;;;;;;;;;;;;;;1035419;28;1449;-37
2022/01/12 01:35:29;;;;;;;;;;;;;;;;;;1031292;28;1609;-40
2022/01/12 01:36:00;;;;;;;;;;;;;;;;;;1031275;28;818;-40
2022/01/12 01:36:31;;;;;;;;;;;;;;;;;;1031505;28;1298;-40
2022/01/12 01:37:01;;;;;;;;;;;;;;;;;;1032013;28;839;-39
2022/01/12 01:37:31;;;;;;;;;;;;;;;;;;1035450;28;1257;-40
2022/01/12 01:38:03;;;;;;;;;;;;;;;;;;1031094;28;1448;-40
2022/01/12 01:38:35;;;;;;;;;;;;;;;;;;1031411;28;1489;-40
2022/01/12 01:39:07;;;;;;;;;;;;;;;;;;1031322;28;878;-39
2022/01/12 01:39:37;;;;;;;;;;;;;;;;;;1027831;28;1115;-40
2022/01/12 01:40:08;;;;;;;;;;;;;;;;;;1031222;28;1244;-39
2022/01/12 01:40:42;;;;;;;;;;;;;;;;;;1031278;28;1118;-39
2022/01/12 01:41:12;;;;;;;;;;;;;;;;;;1031931;28;964;-39
2022/01/12 01:41:48;;;;;;;;;;;;;;;;;;1030746;28;1404;-40
2022/01/12 01:42:25;;;;;;;;;;;;;;;;;;1028299;28;965;-41
2022/01/12 01:43:11;;;;;;;;;;;;;;;;;;1031403;28;954;-40
2022/01/12 01:44:05;;;;;;;;;;;;;;;;;;1035210;28;772;-40
2022/01/12 01:53:26;;;;;;;;;;;;;;;;;;1027263;28;1181;-39
2022/01/12 01:53:57;;;;;;;;;;;;;;;;;;1027439;28;946;-38
2022/01/12 01:54:28;;;;;;;;;;;;;;;;;;1023237;29;2063;-38
2022/01/12 01:54:59;;;;;;;;;;;;;;;;;;1023686;28;946;-38
2022/01/12 01:55:31;;;;;;;;;;;;;;;;;;1023279;29;1288;-38
2022/01/12 01:56:02;;;;;;;;;;;;;;;;;;1023645;28;1217;-37
2022/01/12 01:56:33;;;;;;;;;;;;;;;;;;1027275;28;1119;-39
2022/01/12 01:57:04;;;;;;;;;;;;;;;;;;1027099;28;1076;-39
2022/01/12 01:57:36;;;;;;;;;;;;;;;;;;1023634;28;1134;-39
2022/01/12 01:58:08;;;;;;;;;;;;;;;;;;1027248;28;902;-38
2022/01/12 01:58:41;;;;;;;;;;;;;;;;;;1027242;28;835;-39
2022/01/12 01:59:11;;;;;;;;;;;;;;;;;;1023999;28;1190;-39
2022/01/12 01:59:47;;;;;;;;;;;;;;;;;;1023144;28;1201;-39
2022/01/12 02:00:19;;;;;;;;;;;;;;;;;;1023301;29;1138;-40
2022/01/12 02:00:55;;;;;;;;;;;;;;;;;;1025032;28;744;-39
2022/01/12 02:01:32;;;;;;;;;;;;;;;;;;1024931;28;1068;-39
2022/01/12 02:02:06;;;;;;;;;;;;;;;;;;1023255;29;1190;-38
2022/01/12 02:02:36;;;;;;;;;;;;;;;;;;1023173;29;1356;-38
2022/01/12 02:03:07;;;;;;;;;;;;;;;;;;1023275;29;1170;-39
2022/01/12 02:03:41;;;;;;;;;;;;;;;;;;1022954;28;1190;-39
2022/01/12 02:04:12;;;;;;;;;;;;;;;;;;1022765;29;1214;-39
2022/01/12 02:04:43;;;;;;;;;;;;;;;;;;1024064;28;1149;-39
2022/01/12 02:05:14;;;;;;;;;;;;;;;;;;1023390;28;1292;-38
2022/01/12 02:05:45;;;;;;;;;;;;;;;;;;1027234;28;808;-39
2022/01/12 02:06:16;;;;;;;;;;;;;;;;;;1027207;28;1303;-39
2022/01/12 02:06:48;;;;;;;;;;;;;;;;;;1027613;28;935;-39
2022/01/12 02:07:18;;;;;;;;;;;;;;;;;;1031304;28;831;-42
2022/01/12 02:07:50;;;;;;;;;;;;;;;;;;1027178;28;1326;-42
2022/01/12 02:08:22;;;;;;;;;;;;;;;;;;1027229;28;1302;-41
2022/01/12 02:09:16;;;;;;;;;;;;;;;;;;1019323;28;1079;-40
2022/01/12 02:10:00;;;;;;;;;;;;;;;;;;1031420;28;1393;-40
2022/01/12 02:10:44;;;;;;;;;;;;;;;;;;1027005;28;1292;-40
2022/01/12 02:11:15;;;;;;;;;;;;;;;;;;1023221;29;1678;-40
2022/01/12 02:11:52;;;;;;;;;;;;;;;;;;1025209;28;1333;-39
2022/01/12 02:12:30;;;;;;;;;;;;;;;;;;1024379;28;1467;-39
2022/01/12 02:13:01;;;;;;;;;;;;;;;;;;1023316;29;1210;-39
2022/01/12 02:13:32;;;;;;;;;;;;;;;;;;1026904;28;2730;-40
2022/01/12 02:14:03;;;;;;;;;;;;;;;;;;1023331;29;1254;-39
2022/01/12 02:14:34;;;;;;;;;;;;;;;;;;1027408;28;1421;-40
2022/01/12 02:15:13;;;;;;;;;;;;;;;;;;1027039;28;1161;-39
2022/01/12 02:15:45;;;;;;;;;;;;;;;;;;1027057;28;1403;-40
2022/01/12 02:16:18;;;;;;;;;;;;;;;;;;1027271;28;895;-39
2022/01/12 02:16:53;;;;;;;;;;;;;;;;;;1028914;28;890;-39
2022/01/12 02:17:30;;;;;;;;;;;;;;;;;;1031232;28;854;-39
2022/01/12 02:35:56;;;;;;;;;;;;;;;;;;1039190;28;784;-40
2022/01/12 02:36:30;;;;;;;;;;;;;;;;;;1035170;28;1588;-39
2022/01/12 02:37:15;;;;;;;;;;;;;;;;;;1035327;28;874;-40
2022/01/12 02:39:50;;;;;;;;;;;;;;;;;;1035172;28;858;-40
2022/01/12 02:39:51;;;;;;;;;;;;;;;;;;1035123;28;831;-40
2022/01/12 02:40:22;;;;;;;;;;;;;;;;;;1035226;28;907;-40
2022/01/12 02:40:55;;;;;;;;;;;;;;;;;;1030963;28;1282;-40
2022/01/12 02:41:25;;;;;;;;;;;;;;;;;;1032846;28;924;-40
2022/01/12 02:41:55;;;;;;;;;;;;;;;;;;1035333;28;996;-41
2022/01/12 02:42:27;;;;;;;;;;;;;;;;;;1035510;28;854;-41
2022/01/12 02:43:08;;;;;;;;;;;;;;;;;;1039561;28;883;-40
2022/01/12 02:50:35;;;;;;;;;;;;;;;;;;1035082;28;1584;-40
2022/01/12 02:51:14;;;;;;;;;;;;;;;;;;1031090;28;1423;-37
2022/01/12 02:53:40;;;;;;;;;;;;;;;;;;1030981;28;1113;-40
2022/01/12 02:54:13;;;;;;;;;;;;;;;;;;1030984;28;1252;-40
2022/01/12 02:54:51;;;;;;;;;;;;;;;;;;1026950;28;1209;-40
2022/01/12 02:55:23;;;;;;;;;;;;;;;;;;1027085;28;1309;-40
2022/01/12 02:55:53;;;;;;;;;;;;;;;;;;1026909;28;1260;-40
2022/01/12 02:56:28;;;;;;;;;;;;;;;;;;1027134;28;1452;-40
2022/01/12 02:56:58;;;;;;;;;;;;;;;;;;1027135;28;935;-39
2022/01/12 02:57:29;;;;;;;;;;;;;;;;;;1027533;28;1244;-39
2022/01/12 02:57:59;;;;;;;;;;;;;;;;;;1031229;28;934;-38
2022/01/12 02:58:30;;;;;;;;;;;;;;;;;;1030973;28;823;-40
2022/01/12 02:59:00;;;;;;;;;;;;;;;;;;1027066;28;941;-39
2022/01/12 02:59:34;;;;;;;;;;;;;;;;;;1026934;28;1314;-40
2022/01/12 03:00:11;;;;;;;;;;;;;;;;;;1027032;28;990;-40
2022/01/12 03:03:14;;;;;;;;;;;;;;;;;;1018806;29;1331;-39
2022/01/12 03:03:46;;;;;;;;;;;;;;;;;;1018589;29;888;-40
2022/01/12 03:04:17;;;;;;;;;;;;;;;;;;1018812;29;1182;-38
2022/01/12 03:05:35;;;;;;;;;;;;;;;;;;1018488;29;1334;-39
2022/01/12 03:06:08;;;;;;;;;;;;;;;;;;1029306;28;752;-40
2022/01/12 03:06:41;;;;;;;;;;;;;;;;;;1031094;28;838;-39
2022/01/12 03:07:16;;;;;;;;;;;;;;;;;;1031138;28;915;-39
2022/01/12 03:07:47;;;;;;;;;;;;;;;;;;1030831;28;1040;-39
2022/01/12 03:08:20;;;;;;;;;;;;;;;;;;1031038;28;1184;-40
2022/01/12 03:08:52;;;;;;;;;;;;;;;;;;1026912;28;1221;-40
2022/01/12 03:09:23;;;;;;;;;;;;;;;;;;1023802;28;2356;-40
2022/01/12 03:09:53;;;;;;;;;;;;;;;;;;1027064;28;867;-40
2022/01/12 03:10:25;;;;;;;;;;;;;;;;;;1027074;28;945;-40
2022/01/12 03:10:57;;;;;;;;;;;;;;;;;;1031512;28;1371;-39
2022/01/12 03:11:28;;;;;;;;;;;;;;;;;;1035110;28;984;-40
2022/01/12 03:12:02;;;;;;;;;;;;;;;;;;1035179;28;1656;-40
2022/01/12 03:12:39;;;;;;;;;;;;;;;;;;1030921;28;1277;-40
2022/01/12 03:13:10;;;;;;;;;;;;;;;;;;1026871;28;1365;-40
2022/01/12 03:13:41;;;;;;;;;;;;;;;;;;1031067;28;1204;-40
2022/01/12 03:14:11;;;;;;;;;;;;;;;;;;1031936;28;1391;-40
2022/01/12 03:14:42;;;;;;;;;;;;;;;;;;1030974;28;1269;-39
2022/01/12 03:15:12;;;;;;;;;;;;;;;;;;1031011;28;844;-40
2022/01/12 03:15:42;;;;;;;;;;;;;;;;;;1026962;28;1268;-40
2022/01/12 03:16:22;;;;;;;;;;;;;;;;;;1027861;28;1298;-40
2022/01/12 03:16:52;;;;;;;;;;;;;;;;;;1026867;28;1376;-40
2022/01/12 03:17:28;;;;;;;;;;;;;;;;;;1026918;28;1177;-40
2022/01/12 03:17:58;;;;;;;;;;;;;;;;;;1023132;29;1175;-38
2022/01/12 03:18:30;;;;;;;;;;;;;;;;;;1023703;28;2174;-41
2022/01/12 03:19:02;;;;;;;;;;;;;;;;;;1027313;28;950;-39
2022/01/12 03:19:35;;;;;;;;;;;;;;;;;;1031740;28;1398;-40
2022/01/12 03:20:07;;;;;;;;;;;;;;;;;;1034965;28;1416;-40
2022/01/12 03:20:38;;;;;;;;;;;;;;;;;;1034907;28;1180;-40
2022/01/12 03:21:09;;;;;;;;;;;;;;;;;;1030841;28;1434;-39
2022/01/12 03:21:40;;;;;;;;;;;;;;;;;;1026640;28;1076;-40
2022/01/12 03:22:11;;;;;;;;;;;;;;;;;;1026905;28;1194;-38
2022/01/12 03:22:43;;;;;;;;;;;;;;;;;;1027055;28;1524;-40
2022/01/12 03:23:14;;;;;;;;;;;;;;;;;;1031116;28;1197;-38
2022/01/12 03:23:45;;;;;;;;;;;;;;;;;;1031433;28;857;-39
2022/01/12 03:24:15;;;;;;;;;;;;;;;;;;1031025;28;1309;-39
2022/01/12 03:24:45;;;;;;;;;;;;;;;;;;1030908;28;1384;-39
2022/01/12 03:25:16;;;;;;;;;;;;;;;;;;1026939;28;1736;-40
2022/01/12 03:25:49;;;;;;;;;;;;;;;;;;1022908;28;1477;-38
2022/01/12 03:26:19;;;;;;;;;;;;;;;;;;1030939;28;1551;-40
2022/01/12 03:26:50;;;;;;;;;;;;;;;;;;1030903;28;1239;-40
2022/01/12 03:27:22;;;;;;;;;;;;;;;;;;1031014;28;1181;-40
2022/01/12 03:27:58;;;;;;;;;;;;;;;;;;1031227;28;850;-37
2022/01/12 03:28:29;;;;;;;;;;;;;;;;;;1031079;28;1189;-40
2022/01/12 03:28:59;;;;;;;;;;;;;;;;;;1026821;28;1153;-39
2022/01/12 03:29:30;;;;;;;;;;;;;;;;;;1026892;28;2331;-39
2022/01/12 03:30:00;;;;;;;;;;;;;;;;;;1027068;28;1228;-40
2022/01/12 03:30:37;;;;;;;;;;;;;;;;;;1026809;28;1196;-39
2022/01/12 03:31:39;;;;;;;;;;;;;;;;;;1026931;28;1192;-36
2022/01/12 03:32:11;;;;;;;;;;;;;;;;;;1023955;28;1245;-40
2022/01/12 03:32:47;;;;;;;;;;;;;;;;;;1027177;28;783;-38
2022/01/12 03:33:53;;;;;;;;;;;;;;;;;;1028007;28;961;-39
2022/01/12 03:34:21;;;;;;;;;;;;;;;;;;1030400;28;1414;-40
2022/01/12 04:08:18;;;;;;;;;;;;;;;;;;1031019;28;637;-39
2022/01/12 04:08:48;;;;;;;;;;;;;;;;;;1032377;28;1143;-38
2022/01/12 04:09:19;;;;;;;;;;;;;;;;;;1030581;28;1230;-40
2022/01/12 04:09:49;;;;;;;;;;;;;;;;;;1026764;28;1910;-39
2022/01/12 04:10:20;;;;;;;;;;;;;;;;;;1026572;28;784;-37
2022/01/12 04:10:52;;;;;;;;;;;;;;;;;;1026828;28;796;-40
2022/01/12 04:11:22;;;;;;;;;;;;;;;;;;1031064;28;852;-39
2022/01/12 04:11:53;;;;;;;;;;;;;;;;;;1035224;28;887;-39
2022/01/12 04:12:26;;;;;;;;;;;;;;;;;;1034714;28;1240;-39
2022/01/12 04:12:56;;;;;;;;;;;;;;;;;;1030700;28;1270;-39
2022/01/12 04:13:29;;;;;;;;;;;;;;;;;;1030612;28;1153;-40
2022/01/12 04:14:00;;;;;;;;;;;;;;;;;;1026763;28;1757;-40
2022/01/12 04:14:30;;;;;;;;;;;;;;;;;;1026563;28;1151;-40
2022/01/12 04:15:01;;;;;;;;;;;;;;;;;;1027229;28;1275;-38
2022/01/12 04:15:31;;;;;;;;;;;;;;;;;;1026402;28;2122;-39
2022/01/12 04:16:03;;;;;;;;;;;;;;;;;;1030637;28;1273;-40
2022/01/12 04:16:34;;;;;;;;;;;;;;;;;;1026783;28;1350;-40
2022/01/12 04:17:04;;;;;;;;;;;;;;;;;;1022557;29;1256;-38
2022/01/12 04:17:35;;;;;;;;;;;;;;;;;;1019154;29;1311;-40
2022/01/12 04:18:07;;;;;;;;;;;;;;;;;;1023162;28;1419;-40
2022/01/12 04:18:38;;;;;;;;;;;;;;;;;;1023024;28;1165;-39
2022/01/12 04:19:08;;;;;;;;;;;;;;;;;;1027051;28;769;-39
2022/01/12 04:19:39;;;;;;;;;;;;;;;;;;1026573;28;1274;-40
2022/01/12 04:20:09;;;;;;;;;;;;;;;;;;1026615;28;1292;-40
2022/01/12 04:20:47;;;;;;;;;;;;;;;;;;1026897;28;891;-39
2022/01/12 04:21:25;;;;;;;;;;;;;;;;;;1030861;28;775;-39
2022/01/12 04:21:55;;;;;;;;;;;;;;;;;;1033078;28;846;-39
2022/01/12 04:23:18;;;;;;;;;;;;;;;;;;1030826;28;1570;-39
2022/01/12 04:23:49;;;;;;;;;;;;;;;;;;1026550;28;1162;-39
2022/01/12 04:24:19;;;;;;;;;;;;;;;;;;1030900;28;1645;-40
2022/01/12 04:24:49;;;;;;;;;;;;;;;;;;1030974;28;922;-40
2022/01/12 04:25:22;;;;;;;;;;;;;;;;;;1034937;28;1349;-40
2022/01/12 04:25:57;;;;;;;;;;;;;;;;;;1034425;28;1455;-38
2022/01/12 04:26:29;;;;;;;;;;;;;;;;;;1030506;28;854;-39
2022/01/12 04:27:00;;;;;;;;;;;;;;;;;;1030730;28;870;-39
2022/01/12 04:27:31;;;;;;;;;;;;;;;;;;1032140;28;1165;-40
2022/01/12 04:28:02;;;;;;;;;;;;;;;;;;1035638;28;803;-40
2022/01/12 04:28:33;;;;;;;;;;;;;;;;;;1035511;28;839;-38
2022/01/12 04:29:06;;;;;;;;;;;;;;;;;;1033416;28;1469;-40
2022/01/12 04:29:37;;;;;;;;;;;;;;;;;;1031452;28;1899;-39
2022/01/12 04:30:09;;;;;;;;;;;;;;;;;;1035248;28;854;-39
2022/01/12 04:30:39;;;;;;;;;;;;;;;;;;1031456;28;1161;-40
2022/01/12 04:31:11;;;;;;;;;;;;;;;;;;1027854;28;796;-39
2022/01/12 04:31:41;;;;;;;;;;;;;;;;;;1027467;28;776;-40
2022/01/12 04:32:11;;;;;;;;;;;;;;;;;;1027629;28;843;-38
2022/01/12 04:32:43;;;;;;;;;;;;;;;;;;1031798;28;887;-38
2022/01/12 04:33:13;;;;;;;;;;;;;;;;;;1031454;28;1304;-39
2022/01/12 04:33:45;;;;;;;;;;;;;;;;;;1031434;28;997;-37
2022/01/12 04:34:15;;;;;;;;;;;;;;;;;;1031426;28;1198;-38
2022/01/12 04:34:46;;;;;;;;;;;;;;;;;;1027220;28;873;-39
2022/01/12 04:35:19;;;;;;;;;;;;;;;;;;1023721;28;954;-38
2022/01/12 04:35:54;;;;;;;;;;;;;;;;;;1027379;28;776;-39
2022/01/12 04:36:24;;;;;;;;;;;;;;;;;;1028302;28;1334;-38
2022/01/12 04:36:55;;;;;;;;;;;;;;;;;;1031375;28;831;-40
2022/01/12 04:37:25;;;;;;;;;;;;;;;;;;1031536;28;823;-39
2022/01/12 04:37:55;;;;;;;;;;;;;;;;;;1031585;28;954;-39
2022/01/12 04:38:28;;;;;;;;;;;;;;;;;;1031518;28;894;-40
2022/01/12 04:38:59;;;;;;;;;;;;;;;;;;1031950;28;752;-38
2022/01/12 04:39:30;;;;;;;;;;;;;;;;;;1031227;28;1193;-39
2022/01/12 04:40:00;;;;;;;;;;;;;;;;;;1031611;28;799;-38
2022/01/12 04:40:31;;;;;;;;;;;;;;;;;;1031405;28;823;-40
2022/01/12 04:41:02;;;;;;;;;;;;;;;;;;1031480;28;879;-39
2022/01/12 04:41:33;;;;;;;;;;;;;;;;;;1031475;28;1329;-39
2022/01/12 04:42:03;;;;;;;;;;;;;;;;;;1027411;28;1214;-40
2022/01/12 04:42:35;;;;;;;;;;;;;;;;;;1027369;28;1284;-39
2022/01/12 04:43:08;;;;;;;;;;;;;;;;;;1023433;29;812;-39
2022/01/12 04:43:39;;;;;;;;;;;;;;;;;;1023743;28;1328;-37
2022/01/12 04:44:12;;;;;;;;;;;;;;;;;;1027328;28;1453;-37
2022/01/12 04:44:45;;;;;;;;;;;;;;;;;;1026435;28;1630;-39
2022/01/12 04:47:03;;;;;;;;;;;;;;;;;;1011201;29;764;-39
2022/01/12 04:49:26;;;;;;;;;;;;;;;;;;1031308;28;1219;-39
2022/01/12 04:49:57;;;;;;;;;;;;;;;;;;1035505;28;1977;-39
2022/01/12 04:50:29;;;;;;;;;;;;;;;;;;1035045;28;1279;-39
2022/01/12 04:51:00;;;;;;;;;;;;;;;;;;1031478;28;851;-39
2022/01/12 04:51:32;;;;;;;;;;;;;;;;;;1031119;28;819;-40
2022/01/12 04:52:03;;;;;;;;;;;;;;;;;;1031328;28;1239;-40
2022/01/12 04:52:33;;;;;;;;;;;;;;;;;;1027737;28;1343;-39
2022/01/12 04:53:04;;;;;;;;;;;;;;;;;;1027247;28;1165;-39
2022/01/12 04:53:35;;;;;;;;;;;;;;;;;;1031194;28;1126;-39
2022/01/12 04:54:06;;;;;;;;;;;;;;;;;;1027197;28;1173;-39
2022/01/12 04:54:37;;;;;;;;;;;;;;;;;;1027648;28;1598;-38
2022/01/12 04:55:07;;;;;;;;;;;;;;;;;;1031480;28;941;-39
2022/01/12 04:55:38;;;;;;;;;;;;;;;;;;1031424;28;752;-38
2022/01/12 04:56:08;;;;;;;;;;;;;;;;;;1027389;28;961;-38
2022/01/12 04:56:39;;;;;;;;;;;;;;;;;;1023153;29;1111;-39
2022/01/12 04:57:10;;;;;;;;;;;;;;;;;;1023456;28;1261;-39
2022/01/12 04:57:41;;;;;;;;;;;;;;;;;;1027481;28;847;-39
2022/01/12 04:58:11;;;;;;;;;;;;;;;;;;1027296;28;1185;-38
2022/01/12 04:58:42;;;;;;;;;;;;;;;;;;1027548;28;1195;-38
2022/01/12 04:59:13;;;;;;;;;;;;;;;;;;1031331;28;1181;-38
2022/01/12 05:00:00;;;;;;;;;;;;;;;;;;1031327;28;878;-39
2022/01/12 05:00:32;;;;;;;;;;;;;;;;;;1029453;28;1747;-37
2022/01/12 05:01:13;;;;;;;;;;;;;;;;;;1027416;28;1264;-40
2022/01/12 05:01:52;;;;;;;;;;;;;;;;;;1027183;28;1309;-37
2022/01/12 05:06:43;;;;;;;;;;;;;;;;;;1035344;28;832;-39
2022/01/12 05:07:28;;;;;;;;;;;;;;;;;;1031238;28;1167;-39
2022/01/12 05:08:17;;;;;;;;;;;;;;;;;;1031518;28;1433;-39
2022/01/12 05:08:53;;;;;;;;;;;;;;;;;;1027314;28;1266;-37
2022/01/12 05:09:41;;;;;;;;;;;;;;;;;;1027269;28;1179;-38
2022/01/12 05:13:16;;;;;;;;;;;;;;;;;;1031367;28;1213;-39
2022/01/12 05:13:47;;;;;;;;;;;;;;;;;;1027065;28;1173;-39
2022/01/12 05:14:21;;;;;;;;;;;;;;;;;;1027276;28;1208;-39
2022/01/12 05:15:04;;;;;;;;;;;;;;;;;;1031678;28;1303;-40
2022/01/12 05:15:36;;;;;;;;;;;;;;;;;;1035262;28;1421;-40
2022/01/12 05:16:11;;;;;;;;;;;;;;;;;;1031184;28;1370;-39
2022/01/12 05:16:42;;;;;;;;;;;;;;;;;;1026887;28;1304;-40
2022/01/12 05:17:13;;;;;;;;;;;;;;;;;;1027300;28;1216;-40
2022/01/12 05:17:43;;;;;;;;;;;;;;;;;;1027821;28;780;-38
2022/01/12 05:18:13;;;;;;;;;;;;;;;;;;1031352;28;993;-39
2022/01/12 05:18:45;;;;;;;;;;;;;;;;;;1027178;28;1333;-39
2022/01/12 05:19:16;;;;;;;;;;;;;;;;;;1031347;28;1329;-40
2022/01/12 05:19:46;;;;;;;;;;;;;;;;;;1031310;28;783;-39
2022/01/12 05:20:17;;;;;;;;;;;;;;;;;;1031614;28;1515;-39
2022/01/12 05:20:47;;;;;;;;;;;;;;;;;;1030962;28;1284;-39
2022/01/12 05:21:19;;;;;;;;;;;;;;;;;;1031494;28;1288;-40
2022/01/12 05:21:49;;;;;;;;;;;;;;;;;;1030665;28;1277;-40
2022/01/12 05:22:20;;;;;;;;;;;;;;;;;;1027634;28;1437;-40
2022/01/12 05:22:50;;;;;;;;;;;;;;;;;;1026921;28;1683;-38
2022/01/12 05:23:21;;;;;;;;;;;;;;;;;;1027214;28;1305;-39
2022/01/12 05:23:51;;;;;;;;;;;;;;;;;;1027274;28;883;-39
2022/01/12 05:24:22;;;;;;;;;;;;;;;;;;1031450;28;870;-40
2022/01/12 05:24:53;;;;;;;;;;;;;;;;;;1030907;28;1330;-39
2022/01/12 05:25:24;;;;;;;;;;;;;;;;;;1031253;28;1349;-38
2022/01/12 05:25:54;;;;;;;;;;;;;;;;;;1031072;28;1587;-37
2022/01/12 05:26:24;;;;;;;;;;;;;;;;;;1031321;28;1563;-39
2022/01/12 05:26:55;;;;;;;;;;;;;;;;;;1035215;28;811;-39
2022/01/12 05:27:26;;;;;;;;;;;;;;;;;;1031128;28;1144;-38
2022/01/12 05:27:56;;;;;;;;;;;;;;;;;;1027354;28;1161;-39
2022/01/12 05:28:27;;;;;;;;;;;;;;;;;;1031259;28;950;-39